sensor_id;sensor_type;location;lat;lon;timestamp;temperature;humidity
997;DHT22;487;50.126;8.698;2022-09-17T00:01:27;11.60;1.00
997;DHT22;487;50.126;8.698;2022-09-17T00:03:58;11.60;1.00
997;DHT22;487;50.126;8.698;2022-09-17T00:06:30;11.60;1.00
997;DHT22;487;50.126;8.698;2022-09-17T00:08:58;11.70;1.00
997;DHT22;487;50.126;8.698;2022-09-17T00:11:29;11.70;1.00
997;DHT22;487;50.126;8.698;2022-09-17T00:13:59;11.70;1.00
997;DHT22;487;50.126;8.698;2022-09-17T00:16:29;11.70;1.00
997;DHT22;487;50.126;8.698;2022-09-17T00:18:58;11.70;1.00
997;DHT22;487;50.126;8.698;2022-09-17T00:21:27;11.70;1.00
997;DHT22;487;50.126;8.698;2022-09-17T00:23:56;11.70;1.00
997;DHT22;487;50.126;8.698;2022-09-17T00:26:27;11.70;1.00
997;DHT22;487;50.126;8.698;2022-09-17T00:28:56;11.70;1.00
997;DHT22;487;50.126;8.698;2022-09-17T00:31:25;11.70;1.00
997;DHT22;487;50.126;8.698;2022-09-17T00:33:53;11.60;1.00
997;DHT22;487;50.126;8.698;2022-09-17T00:36:21;11.60;1.00
997;DHT22;487;50.126;8.698;2022-09-17T00:38:49;11.60;1.00
997;DHT22;487;50.126;8.698;2022-09-17T00:41:17;11.60;1.00
997;DHT22;487;50.126;8.698;2022-09-17T00:43:49;11.60;1.00
997;DHT22;487;50.126;8.698;2022-09-17T00:46:25;11.50;1.00
997;DHT22;487;50.126;8.698;2022-09-17T00:48:57;11.50;1.00
997;DHT22;487;50.126;8.698;2022-09-17T00:51:29;11.50;1.00
997;DHT22;487;50.126;8.698;2022-09-17T00:54:02;11.40;1.00
997;DHT22;487;50.126;8.698;2022-09-17T00:56:32;11.50;1.00
997;DHT22;487;50.126;8.698;2022-09-17T00:59:03;12.40;1.00
997;DHT22;487;50.126;8.698;2022-09-17T01:01:31;12.70;1.00
997;DHT22;487;50.126;8.698;2022-09-17T01:04:00;11.40;1.00
997;DHT22;487;50.126;8.698;2022-09-17T01:06:32;11.50;1.00
997;DHT22;487;50.126;8.698;2022-09-17T01:09:20;11.50;1.00
997;DHT22;487;50.126;8.698;2022-09-17T01:12:07;11.50;1.00
997;DHT22;487;50.126;8.698;2022-09-17T01:14:48;11.60;1.00
997;DHT22;487;50.126;8.698;2022-09-17T01:17:25;11.50;1.00
997;DHT22;487;50.126;8.698;2022-09-17T01:20:13;11.60;1.00
997;DHT22;487;50.126;8.698;2022-09-17T01:22:58;11.60;1.00
997;DHT22;487;50.126;8.698;2022-09-17T01:25:34;11.60;1.00
997;DHT22;487;50.126;8.698;2022-09-17T01:28:27;11.60;1.00
997;DHT22;487;50.126;8.698;2022-09-17T01:31:14;11.50;1.00
997;DHT22;487;50.126;8.698;2022-09-17T01:33:52;11.40;1.00
997;DHT22;487;50.126;8.698;2022-09-17T01:36:37;11.40;1.00
997;DHT22;487;50.126;8.698;2022-09-17T01:39:17;11.40;1.00
997;DHT22;487;50.126;8.698;2022-09-17T01:41:50;11.30;1.00
997;DHT22;487;50.126;8.698;2022-09-17T01:44:22;11.30;1.00
997;DHT22;487;50.126;8.698;2022-09-17T01:46:56;11.30;1.00
997;DHT22;487;50.126;8.698;2022-09-17T01:49:29;11.40;1.00
997;DHT22;487;50.126;8.698;2022-09-17T01:51:59;11.50;1.00
997;DHT22;487;50.126;8.698;2022-09-17T01:54:30;11.50;1.00
997;DHT22;487;50.126;8.698;2022-09-17T01:57:05;11.50;1.00
997;DHT22;487;50.126;8.698;2022-09-17T01:59:38;11.50;1.00
997;DHT22;487;50.126;8.698;2022-09-17T02:02:12;11.50;1.00
997;DHT22;487;50.126;8.698;2022-09-17T02:04:44;11.40;1.00
997;DHT22;487;50.126;8.698;2022-09-17T02:07:17;11.40;1.00
997;DHT22;487;50.126;8.698;2022-09-17T02:09:52;11.40;1.00
997;DHT22;487;50.126;8.698;2022-09-17T02:12:27;11.30;1.00
997;DHT22;487;50.126;8.698;2022-09-17T02:14:58;11.20;1.00
997;DHT22;487;50.126;8.698;2022-09-17T02:17:33;11.20;1.00
997;DHT22;487;50.126;8.698;2022-09-17T02:20:02;11.30;1.00
997;DHT22;487;50.126;8.698;2022-09-17T02:22:36;11.30;1.00
997;DHT22;487;50.126;8.698;2022-09-17T02:25:09;11.40;1.00
997;DHT22;487;50.126;8.698;2022-09-17T02:27:47;11.30;1.00
997;DHT22;487;50.126;8.698;2022-09-17T02:30:16;11.20;1.00
997;DHT22;487;50.126;8.698;2022-09-17T02:32:45;11.20;1.00
997;DHT22;487;50.126;8.698;2022-09-17T02:35:13;11.30;1.00
997;DHT22;487;50.126;8.698;2022-09-17T02:37:42;11.40;1.00
997;DHT22;487;50.126;8.698;2022-09-17T02:40:12;11.20;1.00
997;DHT22;487;50.126;8.698;2022-09-17T02:42:53;11.20;1.00
997;DHT22;487;50.126;8.698;2022-09-17T02:45:32;11.20;1.00
997;DHT22;487;50.126;8.698;2022-09-17T02:48:23;11.20;1.00
997;DHT22;487;50.126;8.698;2022-09-17T02:51:14;11.10;1.00
997;DHT22;487;50.126;8.698;2022-09-17T02:53:55;11.20;1.00
997;DHT22;487;50.126;8.698;2022-09-17T02:56:33;11.20;1.00
997;DHT22;487;50.126;8.698;2022-09-17T02:59:10;11.20;1.00
997;DHT22;487;50.126;8.698;2022-09-17T03:01:43;11.10;1.00
997;DHT22;487;50.126;8.698;2022-09-17T03:04:16;11.10;1.00
997;DHT22;487;50.126;8.698;2022-09-17T03:06:46;12.70;1.00
997;DHT22;487;50.126;8.698;2022-09-17T03:09:14;11.10;1.00
997;DHT22;487;50.126;8.698;2022-09-17T03:11:42;11.10;1.00
997;DHT22;487;50.126;8.698;2022-09-17T03:14:10;11.20;1.00
997;DHT22;487;50.126;8.698;2022-09-17T03:16:38;11.20;1.00
997;DHT22;487;50.126;8.698;2022-09-17T03:19:06;11.20;1.00
997;DHT22;487;50.126;8.698;2022-09-17T03:21:35;11.10;1.00
997;DHT22;487;50.126;8.698;2022-09-17T03:24:03;11.10;1.00
997;DHT22;487;50.126;8.698;2022-09-17T03:26:31;11.10;1.00
997;DHT22;487;50.126;8.698;2022-09-17T03:28:59;11.10;1.00
997;DHT22;487;50.126;8.698;2022-09-17T03:31:27;11.10;1.00
997;DHT22;487;50.126;8.698;2022-09-17T03:33:55;11.00;1.00
997;DHT22;487;50.126;8.698;2022-09-17T03:36:24;11.00;1.00
997;DHT22;487;50.126;8.698;2022-09-17T03:38:54;11.00;1.00
997;DHT22;487;50.126;8.698;2022-09-17T03:41:22;11.00;1.00
997;DHT22;487;50.126;8.698;2022-09-17T03:43:50;11.10;1.00
997;DHT22;487;50.126;8.698;2022-09-17T03:46:19;10.90;1.00
997;DHT22;487;50.126;8.698;2022-09-17T03:48:46;10.90;1.00
997;DHT22;487;50.126;8.698;2022-09-17T03:51:14;10.90;1.00
997;DHT22;487;50.126;8.698;2022-09-17T03:53:42;10.90;1.00
997;DHT22;487;50.126;8.698;2022-09-17T03:56:11;10.80;1.00
997;DHT22;487;50.126;8.698;2022-09-17T03:58:39;10.80;1.00
997;DHT22;487;50.126;8.698;2022-09-17T04:01:07;10.80;1.00
997;DHT22;487;50.126;8.698;2022-09-17T04:03:35;10.80;1.00
997;DHT22;487;50.126;8.698;2022-09-17T04:06:02;10.80;1.00
997;DHT22;487;50.126;8.698;2022-09-17T04:08:30;10.80;1.00
997;DHT22;487;50.126;8.698;2022-09-17T04:10:59;10.70;1.00
997;DHT22;487;50.126;8.698;2022-09-17T04:13:28;10.80;1.00
997;DHT22;487;50.126;8.698;2022-09-17T04:15:56;10.80;1.00
997;DHT22;487;50.126;8.698;2022-09-17T04:18:24;10.70;1.00
997;DHT22;487;50.126;8.698;2022-09-17T04:20:51;10.70;1.00
997;DHT22;487;50.126;8.698;2022-09-17T04:23:19;10.70;1.00
997;DHT22;487;50.126;8.698;2022-09-17T04:25:47;10.70;1.00
997;DHT22;487;50.126;8.698;2022-09-17T04:28:15;10.70;1.00
997;DHT22;487;50.126;8.698;2022-09-17T04:30:44;10.80;1.00
997;DHT22;487;50.126;8.698;2022-09-17T04:33:14;10.80;1.00
997;DHT22;487;50.126;8.698;2022-09-17T04:35:42;10.80;1.00
997;DHT22;487;50.126;8.698;2022-09-17T04:38:10;10.80;1.00
997;DHT22;487;50.126;8.698;2022-09-17T04:40:39;10.80;1.00
997;DHT22;487;50.126;8.698;2022-09-17T04:43:07;10.80;1.00
997;DHT22;487;50.126;8.698;2022-09-17T04:45:36;10.90;1.00
997;DHT22;487;50.126;8.698;2022-09-17T04:50:33;10.80;1.00
997;DHT22;487;50.126;8.698;2022-09-17T04:53:01;10.80;1.00
997;DHT22;487;50.126;8.698;2022-09-17T04:55:29;10.80;1.00
997;DHT22;487;50.126;8.698;2022-09-17T04:57:57;10.80;1.00
997;DHT22;487;50.126;8.698;2022-09-17T05:00:25;10.90;1.00
997;DHT22;487;50.126;8.698;2022-09-17T05:02:54;10.90;1.00
997;DHT22;487;50.126;8.698;2022-09-17T05:05:24;10.90;1.00
997;DHT22;487;50.126;8.698;2022-09-17T05:07:52;11.00;1.00
997;DHT22;487;50.126;8.698;2022-09-17T05:10:21;11.00;1.00
997;DHT22;487;50.126;8.698;2022-09-17T05:12:50;11.00;1.00
997;DHT22;487;50.126;8.698;2022-09-17T05:15:18;11.00;1.00
997;DHT22;487;50.126;8.698;2022-09-17T05:17:46;11.00;1.00
997;DHT22;487;50.126;8.698;2022-09-17T05:20:15;11.00;1.00
997;DHT22;487;50.126;8.698;2022-09-17T05:22:45;11.00;1.00
997;DHT22;487;50.126;8.698;2022-09-17T05:25:16;10.90;1.00
997;DHT22;487;50.126;8.698;2022-09-17T05:27:44;11.00;1.00
997;DHT22;487;50.126;8.698;2022-09-17T05:30:12;11.00;1.00
997;DHT22;487;50.126;8.698;2022-09-17T05:32:39;11.00;1.00
997;DHT22;487;50.126;8.698;2022-09-17T05:35:08;11.10;1.00
997;DHT22;487;50.126;8.698;2022-09-17T05:37:36;11.10;1.00
997;DHT22;487;50.126;8.698;2022-09-17T05:40:07;11.10;1.00
997;DHT22;487;50.126;8.698;2022-09-17T05:42:35;11.10;1.00
997;DHT22;487;50.126;8.698;2022-09-17T05:45:04;11.10;1.00
997;DHT22;487;50.126;8.698;2022-09-17T05:47:32;11.10;1.00
997;DHT22;487;50.126;8.698;2022-09-17T05:50:00;11.10;1.00
997;DHT22;487;50.126;8.698;2022-09-17T05:52:29;11.10;1.00
997;DHT22;487;50.126;8.698;2022-09-17T05:54:56;11.10;1.00
997;DHT22;487;50.126;8.698;2022-09-17T05:57:27;11.10;1.00
997;DHT22;487;50.126;8.698;2022-09-17T05:59:55;11.20;1.00
997;DHT22;487;50.126;8.698;2022-09-17T06:02:23;11.10;1.00
997;DHT22;487;50.126;8.698;2022-09-17T06:04:51;11.10;1.00
997;DHT22;487;50.126;8.698;2022-09-17T06:07:18;11.10;1.00
997;DHT22;487;50.126;8.698;2022-09-17T06:09:46;11.10;1.00
997;DHT22;487;50.126;8.698;2022-09-17T06:12:14;11.10;1.00
997;DHT22;487;50.126;8.698;2022-09-17T06:14:43;11.10;1.00
997;DHT22;487;50.126;8.698;2022-09-17T06:17:11;11.10;1.00
997;DHT22;487;50.126;8.698;2022-09-17T06:19:39;11.20;1.00
997;DHT22;487;50.126;8.698;2022-09-17T06:22:07;11.20;1.00
997;DHT22;487;50.126;8.698;2022-09-17T06:24:35;11.20;1.00
997;DHT22;487;50.126;8.698;2022-09-17T06:27:02;11.30;1.00
997;DHT22;487;50.126;8.698;2022-09-17T06:29:30;11.30;1.00
997;DHT22;487;50.126;8.698;2022-09-17T06:31:59;11.30;1.00
997;DHT22;487;50.126;8.698;2022-09-17T06:34:28;11.40;1.00
997;DHT22;487;50.126;8.698;2022-09-17T06:36:56;11.50;1.00
997;DHT22;487;50.126;8.698;2022-09-17T06:41:51;11.50;1.00
997;DHT22;487;50.126;8.698;2022-09-17T06:44:19;11.50;1.00
997;DHT22;487;50.126;8.698;2022-09-17T06:46:48;11.50;1.00
997;DHT22;487;50.126;8.698;2022-09-17T06:49:18;11.70;1.00
997;DHT22;487;50.126;8.698;2022-09-17T06:51:46;11.80;1.00
997;DHT22;487;50.126;8.698;2022-09-17T06:54:13;11.90;1.00
997;DHT22;487;50.126;8.698;2022-09-17T06:56:41;11.80;1.00
997;DHT22;487;50.126;8.698;2022-09-17T06:59:09;11.80;1.00
997;DHT22;487;50.126;8.698;2022-09-17T07:01:37;11.80;1.00
997;DHT22;487;50.126;8.698;2022-09-17T07:04:05;11.90;1.00
997;DHT22;487;50.126;8.698;2022-09-17T07:06:35;12.00;1.00
997;DHT22;487;50.126;8.698;2022-09-17T07:09:04;12.10;1.00
997;DHT22;487;50.126;8.698;2022-09-17T07:11:36;12.30;1.00
997;DHT22;487;50.126;8.698;2022-09-17T07:14:04;12.40;1.00
997;DHT22;487;50.126;8.698;2022-09-17T07:16:32;12.50;1.00
997;DHT22;487;50.126;8.698;2022-09-17T07:19:02;12.70;1.00
997;DHT22;487;50.126;8.698;2022-09-17T07:21:30;12.70;1.00
997;DHT22;487;50.126;8.698;2022-09-17T07:24:00;12.70;1.00
997;DHT22;487;50.126;8.698;2022-09-17T07:26:28;12.70;1.00
997;DHT22;487;50.126;8.698;2022-09-17T07:28:56;12.70;1.00
997;DHT22;487;50.126;8.698;2022-09-17T07:31:24;12.70;1.00
997;DHT22;487;50.126;8.698;2022-09-17T07:33:52;12.70;1.00
997;DHT22;487;50.126;8.698;2022-09-17T07:36:20;12.80;1.00
997;DHT22;487;50.126;8.698;2022-09-17T07:38:48;12.80;1.00
997;DHT22;487;50.126;8.698;2022-09-17T07:41:18;12.90;1.00
997;DHT22;487;50.126;8.698;2022-09-17T07:43:46;12.90;1.00
997;DHT22;487;50.126;8.698;2022-09-17T07:46:16;13.00;1.00
997;DHT22;487;50.126;8.698;2022-09-17T07:48:44;13.00;1.00
997;DHT22;487;50.126;8.698;2022-09-17T07:51:17;13.10;1.00
997;DHT22;487;50.126;8.698;2022-09-17T07:56:17;13.10;1.00
997;DHT22;487;50.126;8.698;2022-09-17T07:58:45;13.10;1.00
997;DHT22;487;50.126;8.698;2022-09-17T08:01:14;13.20;1.00
997;DHT22;487;50.126;8.698;2022-09-17T08:03:46;13.10;1.00
997;DHT22;487;50.126;8.698;2022-09-17T08:06:16;13.20;1.00
997;DHT22;487;50.126;8.698;2022-09-17T08:08:45;13.20;1.00
997;DHT22;487;50.126;8.698;2022-09-17T08:11:14;13.20;1.00
997;DHT22;487;50.126;8.698;2022-09-17T08:14:04;13.30;1.00
997;DHT22;487;50.126;8.698;2022-09-17T08:19:00;13.40;1.00
997;DHT22;487;50.126;8.698;2022-09-17T08:21:28;13.40;1.00
997;DHT22;487;50.126;8.698;2022-09-17T08:23:57;14.00;1.00
997;DHT22;487;50.126;8.698;2022-09-17T08:26:25;13.50;1.00
997;DHT22;487;50.126;8.698;2022-09-17T08:28:54;13.60;1.00
997;DHT22;487;50.126;8.698;2022-09-17T08:31:24;13.60;1.00
997;DHT22;487;50.126;8.698;2022-09-17T08:34:00;13.60;1.00
997;DHT22;487;50.126;8.698;2022-09-17T08:38:57;13.60;1.00
997;DHT22;487;50.126;8.698;2022-09-17T08:41:30;13.60;1.00
997;DHT22;487;50.126;8.698;2022-09-17T08:44:08;13.60;1.00
997;DHT22;487;50.126;8.698;2022-09-17T08:46:43;13.60;1.00
997;DHT22;487;50.126;8.698;2022-09-17T08:49:18;13.60;1.00
997;DHT22;487;50.126;8.698;2022-09-17T08:52:00;13.60;1.00
997;DHT22;487;50.126;8.698;2022-09-17T08:54:32;13.80;1.00
997;DHT22;487;50.126;8.698;2022-09-17T08:57:13;13.90;1.00
997;DHT22;487;50.126;8.698;2022-09-17T08:59:49;13.90;1.00
997;DHT22;487;50.126;8.698;2022-09-17T09:02:40;14.00;1.00
997;DHT22;487;50.126;8.698;2022-09-17T09:05:12;14.00;1.00
997;DHT22;487;50.126;8.698;2022-09-17T09:07:44;14.00;1.00
997;DHT22;487;50.126;8.698;2022-09-17T09:10:17;14.10;1.00
997;DHT22;487;50.126;8.698;2022-09-17T09:12:49;14.10;1.00
997;DHT22;487;50.126;8.698;2022-09-17T09:15:26;14.20;1.00
997;DHT22;487;50.126;8.698;2022-09-17T09:20:50;14.50;1.00
997;DHT22;487;50.126;8.698;2022-09-17T09:23:28;14.60;1.00
997;DHT22;487;50.126;8.698;2022-09-17T09:26:07;14.70;1.00
997;DHT22;487;50.126;8.698;2022-09-17T09:31:48;14.60;1.00
997;DHT22;487;50.126;8.698;2022-09-17T09:34:19;14.60;1.00
997;DHT22;487;50.126;8.698;2022-09-17T09:36:48;14.80;1.00
997;DHT22;487;50.126;8.698;2022-09-17T09:39:19;15.00;1.00
997;DHT22;487;50.126;8.698;2022-09-17T09:41:51;15.30;1.00
997;DHT22;487;50.126;8.698;2022-09-17T09:44:23;15.30;1.00
997;DHT22;487;50.126;8.698;2022-09-17T09:47:22;15.30;1.00
997;DHT22;487;50.126;8.698;2022-09-17T09:50:03;15.30;1.00
997;DHT22;487;50.126;8.698;2022-09-17T09:52:44;15.30;1.00
997;DHT22;487;50.126;8.698;2022-09-17T09:55:37;15.20;1.00
997;DHT22;487;50.126;8.698;2022-09-17T09:58:19;15.30;1.00
997;DHT22;487;50.126;8.698;2022-09-17T10:00:50;15.30;1.00
997;DHT22;487;50.126;8.698;2022-09-17T10:03:20;15.30;1.00
997;DHT22;487;50.126;8.698;2022-09-17T10:05:55;15.30;1.00
997;DHT22;487;50.126;8.698;2022-09-17T10:08:24;15.30;1.00
997;DHT22;487;50.126;8.698;2022-09-17T10:10:54;15.20;1.00
997;DHT22;487;50.126;8.698;2022-09-17T10:13:22;15.20;1.00
997;DHT22;487;50.126;8.698;2022-09-17T10:15:50;15.20;1.00
997;DHT22;487;50.126;8.698;2022-09-17T10:18:20;15.10;1.00
997;DHT22;487;50.126;8.698;2022-09-17T10:20:56;15.10;1.00
997;DHT22;487;50.126;8.698;2022-09-17T10:23:27;15.00;1.00
997;DHT22;487;50.126;8.698;2022-09-17T10:25:57;15.00;1.00
997;DHT22;487;50.126;8.698;2022-09-17T10:28:31;15.00;1.00
997;DHT22;487;50.126;8.698;2022-09-17T10:31:02;15.00;1.00
997;DHT22;487;50.126;8.698;2022-09-17T10:33:37;14.90;1.00
997;DHT22;487;50.126;8.698;2022-09-17T10:36:08;14.80;1.00
997;DHT22;487;50.126;8.698;2022-09-17T10:38:41;14.80;1.00
997;DHT22;487;50.126;8.698;2022-09-17T10:41:14;14.90;1.00
997;DHT22;487;50.126;8.698;2022-09-17T10:43:43;14.90;1.00
997;DHT22;487;50.126;8.698;2022-09-17T10:46:15;15.00;1.00
997;DHT22;487;50.126;8.698;2022-09-17T10:48:50;15.00;1.00
997;DHT22;487;50.126;8.698;2022-09-17T10:51:23;15.00;1.00
997;DHT22;487;50.126;8.698;2022-09-17T10:56:45;15.00;1.00
997;DHT22;487;50.126;8.698;2022-09-17T10:59:35;15.00;1.00
997;DHT22;487;50.126;8.698;2022-09-17T11:02:22;15.10;1.00
997;DHT22;487;50.126;8.698;2022-09-17T11:04:59;15.10;1.00
997;DHT22;487;50.126;8.698;2022-09-17T11:07:38;15.10;1.00
997;DHT22;487;50.126;8.698;2022-09-17T11:10:16;15.10;1.00
997;DHT22;487;50.126;8.698;2022-09-17T11:12:58;15.10;1.00
997;DHT22;487;50.126;8.698;2022-09-17T11:15:42;15.10;1.00
997;DHT22;487;50.126;8.698;2022-09-17T11:18:38;15.00;1.00
997;DHT22;487;50.126;8.698;2022-09-17T11:21:38;15.00;1.00
997;DHT22;487;50.126;8.698;2022-09-17T11:24:38;15.10;1.00
997;DHT22;487;50.126;8.698;2022-09-17T11:27:27;15.30;1.00
997;DHT22;487;50.126;8.698;2022-09-17T11:30:07;15.40;1.00
997;DHT22;487;50.126;8.698;2022-09-17T11:32:44;15.40;1.00
997;DHT22;487;50.126;8.698;2022-09-17T11:35:22;15.50;1.00
997;DHT22;487;50.126;8.698;2022-09-17T11:37:57;15.60;1.00
997;DHT22;487;50.126;8.698;2022-09-17T11:40:39;15.70;1.00
997;DHT22;487;50.126;8.698;2022-09-17T11:43:16;15.80;1.00
997;DHT22;487;50.126;8.698;2022-09-17T11:45:52;15.80;1.00
997;DHT22;487;50.126;8.698;2022-09-17T11:48:36;15.60;1.00
997;DHT22;487;50.126;8.698;2022-09-17T11:51:53;15.40;1.00
997;DHT22;487;50.126;8.698;2022-09-17T11:54:25;15.20;1.00
997;DHT22;487;50.126;8.698;2022-09-17T11:57:04;15.10;1.00
997;DHT22;487;50.126;8.698;2022-09-17T11:59:39;14.70;1.00
997;DHT22;487;50.126;8.698;2022-09-17T12:02:18;14.60;1.00
997;DHT22;487;50.126;8.698;2022-09-17T12:04:54;14.50;1.00
997;DHT22;487;50.126;8.698;2022-09-17T12:07:31;14.50;1.00
997;DHT22;487;50.126;8.698;2022-09-17T12:10:17;14.50;1.00
997;DHT22;487;50.126;8.698;2022-09-17T12:12:53;14.50;1.00
997;DHT22;487;50.126;8.698;2022-09-17T12:15:26;14.60;1.00
997;DHT22;487;50.126;8.698;2022-09-17T12:18:05;14.80;1.00
997;DHT22;487;50.126;8.698;2022-09-17T12:20:59;14.80;1.00
997;DHT22;487;50.126;8.698;2022-09-17T12:23:34;14.90;1.00
997;DHT22;487;50.126;8.698;2022-09-17T12:26:13;14.90;1.00
997;DHT22;487;50.126;8.698;2022-09-17T12:28:50;15.00;1.00
997;DHT22;487;50.126;8.698;2022-09-17T12:31:25;15.20;1.00
997;DHT22;487;50.126;8.698;2022-09-17T12:33:58;15.30;1.00
997;DHT22;487;50.126;8.698;2022-09-17T12:36:41;15.50;1.00
997;DHT22;487;50.126;8.698;2022-09-17T12:39:37;15.50;1.00
997;DHT22;487;50.126;8.698;2022-09-17T12:42:18;15.70;1.00
997;DHT22;487;50.126;8.698;2022-09-17T12:45:15;15.90;1.00
997;DHT22;487;50.126;8.698;2022-09-17T12:48:15;16.10;1.00
997;DHT22;487;50.126;8.698;2022-09-17T12:50:53;16.20;1.00
997;DHT22;487;50.126;8.698;2022-09-17T12:53:28;16.20;1.00
997;DHT22;487;50.126;8.698;2022-09-17T12:56:04;16.30;1.00
997;DHT22;487;50.126;8.698;2022-09-17T12:58:45;16.40;1.00
997;DHT22;487;50.126;8.698;2022-09-17T13:01:21;16.50;1.00
997;DHT22;487;50.126;8.698;2022-09-17T13:03:59;16.50;1.00
997;DHT22;487;50.126;8.698;2022-09-17T13:06:51;16.70;1.00
997;DHT22;487;50.126;8.698;2022-09-17T13:09:38;16.70;1.00
997;DHT22;487;50.126;8.698;2022-09-17T13:12:22;16.70;1.00
997;DHT22;487;50.126;8.698;2022-09-17T13:15:02;16.70;1.00
997;DHT22;487;50.126;8.698;2022-09-17T13:17:41;16.70;1.00
997;DHT22;487;50.126;8.698;2022-09-17T13:20:19;16.70;1.00
997;DHT22;487;50.126;8.698;2022-09-17T13:22:50;16.60;1.00
997;DHT22;487;50.126;8.698;2022-09-17T13:25:21;16.70;1.00
997;DHT22;487;50.126;8.698;2022-09-17T13:27:50;16.70;1.00
997;DHT22;487;50.126;8.698;2022-09-17T13:30:56;16.70;1.00
997;DHT22;487;50.126;8.698;2022-09-17T13:33:56;16.70;1.00
997;DHT22;487;50.126;8.698;2022-09-17T13:36:44;16.80;1.00
997;DHT22;487;50.126;8.698;2022-09-17T13:39:40;16.70;1.00
997;DHT22;487;50.126;8.698;2022-09-17T13:42:14;16.70;1.00
997;DHT22;487;50.126;8.698;2022-09-17T13:44:46;16.80;1.00
997;DHT22;487;50.126;8.698;2022-09-17T13:47:20;16.80;1.00
997;DHT22;487;50.126;8.698;2022-09-17T13:49:51;16.90;1.00
997;DHT22;487;50.126;8.698;2022-09-17T13:52:35;16.80;1.00
997;DHT22;487;50.126;8.698;2022-09-17T13:55:05;16.80;1.00
997;DHT22;487;50.126;8.698;2022-09-17T13:57:45;16.70;1.00
997;DHT22;487;50.126;8.698;2022-09-17T14:00:45;16.60;1.00
997;DHT22;487;50.126;8.698;2022-09-17T14:03:52;16.60;1.00
997;DHT22;487;50.126;8.698;2022-09-17T14:06:46;16.50;1.00
997;DHT22;487;50.126;8.698;2022-09-17T14:12:51;16.20;1.00
997;DHT22;487;50.126;8.698;2022-09-17T14:15:59;16.20;1.00
997;DHT22;487;50.126;8.698;2022-09-17T14:18:56;16.10;1.00
997;DHT22;487;50.126;8.698;2022-09-17T14:21:31;16.10;1.00
997;DHT22;487;50.126;8.698;2022-09-17T14:24:00;16.10;1.00
997;DHT22;487;50.126;8.698;2022-09-17T14:26:55;16.10;1.00
997;DHT22;487;50.126;8.698;2022-09-17T14:29:49;15.80;1.00
997;DHT22;487;50.126;8.698;2022-09-17T14:32:26;15.80;1.00
997;DHT22;487;50.126;8.698;2022-09-17T14:35:02;15.70;1.00
997;DHT22;487;50.126;8.698;2022-09-17T14:37:49;15.60;1.00
997;DHT22;487;50.126;8.698;2022-09-17T14:40:19;15.50;1.00
997;DHT22;487;50.126;8.698;2022-09-17T14:42:51;15.40;1.00
997;DHT22;487;50.126;8.698;2022-09-17T14:45:23;15.30;1.00
997;DHT22;487;50.126;8.698;2022-09-17T14:48:16;15.20;1.00
997;DHT22;487;50.126;8.698;2022-09-17T14:53:15;15.00;1.00
997;DHT22;487;50.126;8.698;2022-09-17T14:55:45;15.00;1.00
997;DHT22;487;50.126;8.698;2022-09-17T14:58:28;15.00;1.00
997;DHT22;487;50.126;8.698;2022-09-17T15:00:58;15.10;1.00
997;DHT22;487;50.126;8.698;2022-09-17T15:03:26;15.10;1.00
997;DHT22;487;50.126;8.698;2022-09-17T15:05:55;15.10;1.00
997;DHT22;487;50.126;8.698;2022-09-17T15:08:25;15.50;1.00
997;DHT22;487;50.126;8.698;2022-09-17T15:10:57;15.80;1.00
997;DHT22;487;50.126;8.698;2022-09-17T15:13:26;15.90;1.00
997;DHT22;487;50.126;8.698;2022-09-17T15:16:00;16.30;1.00
997;DHT22;487;50.126;8.698;2022-09-17T15:18:34;16.40;1.00
997;DHT22;487;50.126;8.698;2022-09-17T15:21:10;16.60;1.00
997;DHT22;487;50.126;8.698;2022-09-17T15:23:38;16.60;1.00
997;DHT22;487;50.126;8.698;2022-09-17T15:26:06;16.60;1.00
997;DHT22;487;50.126;8.698;2022-09-17T15:28:36;16.50;1.00
997;DHT22;487;50.126;8.698;2022-09-17T15:31:08;16.50;1.00
997;DHT22;487;50.126;8.698;2022-09-17T15:36:17;16.60;1.00
997;DHT22;487;50.126;8.698;2022-09-17T15:41:35;16.30;1.00
997;DHT22;487;50.126;8.698;2022-09-17T15:44:14;16.20;1.00
997;DHT22;487;50.126;8.698;2022-09-17T15:47:33;16.10;1.00
997;DHT22;487;50.126;8.698;2022-09-17T15:50:12;16.00;1.00
997;DHT22;487;50.126;8.698;2022-09-17T15:52:41;16.00;1.00
997;DHT22;487;50.126;8.698;2022-09-17T15:55:31;15.90;1.00
997;DHT22;487;50.126;8.698;2022-09-17T15:58:00;15.80;1.00
997;DHT22;487;50.126;8.698;2022-09-17T16:00:28;15.60;1.00
997;DHT22;487;50.126;8.698;2022-09-17T16:02:57;15.40;1.00
997;DHT22;487;50.126;8.698;2022-09-17T16:05:43;15.40;1.00
997;DHT22;487;50.126;8.698;2022-09-17T16:10:51;15.10;1.00
997;DHT22;487;50.126;8.698;2022-09-17T16:13:19;15.00;1.00
997;DHT22;487;50.126;8.698;2022-09-17T16:18:21;15.10;1.00
997;DHT22;487;50.126;8.698;2022-09-17T16:20:49;15.30;1.00
997;DHT22;487;50.126;8.698;2022-09-17T16:23:17;15.20;1.00
997;DHT22;487;50.126;8.698;2022-09-17T16:25:46;15.10;1.00
997;DHT22;487;50.126;8.698;2022-09-17T16:28:17;15.30;1.00
997;DHT22;487;50.126;8.698;2022-09-17T16:30:46;15.30;1.00
997;DHT22;487;50.126;8.698;2022-09-17T16:33:16;15.30;1.00
997;DHT22;487;50.126;8.698;2022-09-17T16:35:46;15.20;1.00
997;DHT22;487;50.126;8.698;2022-09-17T16:38:13;15.10;1.00
997;DHT22;487;50.126;8.698;2022-09-17T16:40:43;15.10;1.00
997;DHT22;487;50.126;8.698;2022-09-17T16:43:14;14.80;1.00
997;DHT22;487;50.126;8.698;2022-09-17T16:45:42;14.80;1.00
997;DHT22;487;50.126;8.698;2022-09-17T16:50:38;14.70;1.00
997;DHT22;487;50.126;8.698;2022-09-17T16:53:06;14.60;1.00
997;DHT22;487;50.126;8.698;2022-09-17T17:03:01;14.40;1.00
997;DHT22;487;50.126;8.698;2022-09-17T17:05:29;14.30;1.00
997;DHT22;487;50.126;8.698;2022-09-17T17:15:29;15.30;1.00
997;DHT22;487;50.126;8.698;2022-09-17T17:20:26;13.80;1.00
997;DHT22;487;50.126;8.698;2022-09-17T17:22:55;13.80;1.00
997;DHT22;487;50.126;8.698;2022-09-17T17:25:22;13.70;1.00
997;DHT22;487;50.126;8.698;2022-09-17T17:27:50;13.60;1.00
997;DHT22;487;50.126;8.698;2022-09-17T17:30:18;13.50;1.00
997;DHT22;487;50.126;8.698;2022-09-17T17:32:48;13.50;1.00
997;DHT22;487;50.126;8.698;2022-09-17T17:37:46;13.40;1.00
997;DHT22;487;50.126;8.698;2022-09-17T17:40:14;13.30;1.00
997;DHT22;487;50.126;8.698;2022-09-17T17:42:42;13.30;1.00
997;DHT22;487;50.126;8.698;2022-09-17T17:45:12;13.20;1.00
997;DHT22;487;50.126;8.698;2022-09-17T17:47:41;13.20;1.00
997;DHT22;487;50.126;8.698;2022-09-17T17:50:09;13.00;1.00
997;DHT22;487;50.126;8.698;2022-09-17T17:55:09;13.00;1.00
997;DHT22;487;50.126;8.698;2022-09-17T17:57:36;12.90;1.00
997;DHT22;487;50.126;8.698;2022-09-17T18:00:05;12.80;1.00
997;DHT22;487;50.126;8.698;2022-09-17T18:02:33;12.80;1.00
997;DHT22;487;50.126;8.698;2022-09-17T18:05:01;12.60;1.00
997;DHT22;487;50.126;8.698;2022-09-17T18:07:30;12.60;1.00
997;DHT22;487;50.126;8.698;2022-09-17T18:09:59;12.50;1.00
997;DHT22;487;50.126;8.698;2022-09-17T18:12:27;12.50;1.00
997;DHT22;487;50.126;8.698;2022-09-17T18:17:24;12.40;1.00
997;DHT22;487;50.126;8.698;2022-09-17T18:19:51;12.40;1.00
997;DHT22;487;50.126;8.698;2022-09-17T18:22:21;12.40;1.00
997;DHT22;487;50.126;8.698;2022-09-17T18:24:49;12.40;1.00
997;DHT22;487;50.126;8.698;2022-09-17T18:27:18;12.40;1.00
997;DHT22;487;50.126;8.698;2022-09-17T18:29:46;12.30;1.00
997;DHT22;487;50.126;8.698;2022-09-17T18:32:14;12.40;1.00
997;DHT22;487;50.126;8.698;2022-09-17T18:34:42;12.30;1.00
997;DHT22;487;50.126;8.698;2022-09-17T18:37:09;12.40;1.00
997;DHT22;487;50.126;8.698;2022-09-17T18:39:37;12.30;1.00